Time;durP1;ratioP1;P1;durP2;ratioP2;P2;SDS_P1;SDS_P2;PMS_P1;PMS_P2;Temp;Humidity;BMP_temperature;BMP_pressure;BME280_temperature;BME280_humidity;BME280_pressure;Samples;Min_cycle;Max_cycle;Signal;HPM_P1;HPM_P2
2023/09/27 00:00:34;;;;;;;93.13;89.33;;;;;;;14.11;100.00;101975.59;4997196;28;20805;-39
2023/09/27 00:03:04;;;;;;;91.00;87.07;;;;;;;14.10;100.00;101981.97;4999981;28;20462;-39
2023/09/27 00:05:32;;;;;;;93.43;89.33;;;;;;;14.09;100.00;101969.59;4998057;28;20524;-41
2023/09/27 00:08:00;;;;;;;102.20;98.33;;;;;;;14.11;100.00;101975.59;4975144;28;20496;-39
2023/09/27 00:10:28;;;;;;;98.07;94.17;;;;;;;14.09;100.00;101965.06;4968564;28;20523;-41
2023/09/27 00:12:55;;;;;;;103.47;99.30;;;;;;;14.05;100.00;101963.78;4981398;28;20450;-40
2023/09/27 00:15:23;;;;;;;102.30;98.33;;;;;;;14.01;100.00;101965.16;4980052;28;20470;-39
2023/09/27 00:17:51;;;;;;;98.77;94.87;;;;;;;13.96;100.00;101964.91;4999361;28;20430;-39
2023/09/27 00:20:21;;;;;;;106.77;102.40;;;;;;;13.92;100.00;101965.50;4999362;28;20438;-40
2023/09/27 00:22:49;;;;;;;103.67;99.80;;;;;;;13.87;100.00;101966.03;4987757;28;20482;-39
2023/09/27 00:25:17;;;;;;;105.27;101.03;;;;;;;13.86;100.00;101972.41;4979414;28;20462;-44
2023/09/27 00:27:45;;;;;;;109.70;105.20;;;;;;;13.81;100.00;101978.34;4979933;28;20458;-41
2023/09/27 00:30:14;;;;;;;110.30;106.07;;;;;;;13.79;100.00;101979.56;4972580;28;20467;-40
2023/09/27 00:32:42;;;;;;;104.73;100.33;;;;;;;13.75;100.00;101994.34;4992411;28;20992;-39
2023/09/27 00:35:14;;;;;;;107.30;103.27;;;;;;;13.72;100.00;102006.28;4974282;28;20474;-40
2023/09/27 00:37:43;;;;;;;113.17;108.67;;;;;;;13.70;100.00;101994.91;4974293;28;20564;-42
2023/09/27 00:40:15;;;;;;;115.23;110.83;;;;;;;13.66;100.00;101977.53;4974215;28;20443;-39
2023/09/27 00:42:42;;;;;;;112.40;108.00;;;;;;;13.67;100.00;101975.69;4974065;28;20459;-44
2023/09/27 00:45:10;;;;;;;118.33;113.33;;;;;;;13.64;100.00;101968.03;4974156;28;20435;-43
2023/09/27 00:47:38;;;;;;;113.73;109.47;;;;;;;13.62;100.00;101951.31;4974186;28;20474;-42
2023/09/27 00:50:08;;;;;;;113.43;109.13;;;;;;;13.60;100.00;101964.88;4973753;28;20442;-42
2023/09/27 00:52:38;;;;;;;112.10;108.00;;;;;;;13.56;100.00;101954.72;4974102;28;20455;-41
2023/09/27 00:55:10;;;;;;;115.60;110.80;;;;;;;13.51;100.00;101957.97;4973474;28;21076;-40
2023/09/27 00:57:39;;;;;;;119.37;114.43;;;;;;;13.49;100.00;101962.69;4974638;28;20439;-42
2023/09/27 01:00:10;;;;;;;120.70;116.00;;;;;;;13.49;100.00;101978.75;4974354;28;20470;-40
2023/09/27 01:02:39;;;;;;;118.77;114.20;;;;;;;13.48;100.00;101966.38;4973663;28;20462;-40
2023/09/27 01:05:09;;;;;;;118.43;113.73;;;;;;;13.45;100.00;101971.25;4973393;28;20442;-45
2023/09/27 01:07:38;;;;;;;120.13;115.13;;;;;;;13.41;100.00;101986.06;4973999;28;20439;-41
2023/09/27 01:10:09;;;;;;;120.17;115.47;;;;;;;13.37;100.00;101982.09;4974097;28;20469;-40
2023/09/27 01:12:37;;;;;;;117.60;113.00;;;;;;;13.30;100.00;101973.94;4973368;28;20459;-40
2023/09/27 01:15:07;;;;;;;119.33;114.53;;;;;;;13.23;100.00;101965.81;4973229;28;21016;-41
2023/09/27 01:17:35;;;;;;;115.57;111.07;;;;;;;13.18;100.00;101970.91;4973457;28;20486;-40
2023/09/27 01:20:08;;;;;;;115.50;110.87;;;;;;;13.15;100.00;101957.88;4972848;28;20436;-43
2023/09/27 01:22:36;;;;;;;113.63;109.23;;;;;;;13.04;100.00;101958.31;4973616;28;21141;-45
2023/09/27 01:25:12;;;;;;;121.97;116.87;;;;;;;12.99;100.00;101955.31;4973026;28;20459;-41
2023/09/27 01:27:41;;;;;;;129.43;124.77;;;;;;;12.98;100.00;101955.50;4964992;28;20463;-39
2023/09/27 01:30:09;;;;;;;132.20;127.00;;;;;;;13.07;100.00;101957.09;4970742;28;20443;-41
2023/09/27 01:32:37;;;;;;;134.93;129.70;;;;;;;13.04;100.00;101944.91;4970908;28;20463;-45
2023/09/27 01:35:06;;;;;;;130.57;124.93;;;;;;;13.03;100.00;101942.41;4972910;28;20475;-42
2023/09/27 01:37:34;;;;;;;129.10;124.17;;;;;;;13.01;100.00;101939.91;4973290;28;20439;-40
2023/09/27 01:40:02;;;;;;;122.37;117.47;;;;;;;13.00;100.00;101951.63;4972920;28;20564;-44
2023/09/27 01:42:31;;;;;;;126.13;121.13;;;;;;;12.99;100.00;101954.50;4972603;28;20522;-39
2023/09/27 01:44:58;;;;;;;130.47;125.37;;;;;;;12.97;100.00;101953.84;4972315;28;20522;-41
2023/09/27 01:47:26;;;;;;;132.07;126.67;;;;;;;12.94;100.00;101949.69;4972688;28;20481;-40
2023/09/27 01:49:54;;;;;;;127.73;122.73;;;;;;;12.93;100.00;101955.25;4972946;28;20444;-42
2023/09/27 01:52:21;;;;;;;123.53;118.47;;;;;;;12.87;100.00;101950.63;4972424;28;20486;-39
2023/09/27 01:54:49;;;;;;;124.97;119.97;;;;;;;12.86;100.00;101965.84;4972179;28;20525;-39
2023/09/27 01:57:17;;;;;;;126.33;121.13;;;;;;;12.77;100.00;101953.53;4972616;28;20455;-39
2023/09/27 01:59:46;;;;;;;127.30;122.00;;;;;;;12.72;100.00;101958.63;4972242;28;20604;-39
2023/09/27 02:02:14;;;;;;;126.83;121.93;;;;;;;12.69;100.00;101973.16;4972385;28;20546;-39
2023/09/27 02:04:41;;;;;;;126.03;121.03;;;;;;;12.65;100.00;101965.69;4972866;28;20443;-39
2023/09/27 02:07:09;;;;;;;123.13;118.23;;;;;;;12.61;100.00;101959.88;4972301;28;20455;-44
2023/09/27 02:09:37;;;;;;;122.77;117.93;;;;;;;12.58;100.00;101962.06;4972582;28;20951;-39
2023/09/27 02:12:04;;;;;;;141.73;135.87;;;;;;;12.56;100.00;101964.94;4972557;28;20919;-40
2023/09/27 02:14:32;;;;;;;124.53;119.60;;;;;;;12.52;100.00;101966.28;4972697;28;20474;-39
2023/09/27 02:17:01;;;;;;;125.80;120.80;;;;;;;12.49;100.00;101979.19;4979052;28;20489;-43
2023/09/27 02:19:29;;;;;;;127.73;122.83;;;;;;;12.46;100.00;101971.53;4972516;28;20446;-39
2023/09/27 02:21:57;;;;;;;127.27;121.97;;;;;;;12.44;100.00;101973.56;4972333;28;20439;-40
2023/09/27 02:24:25;;;;;;;126.30;121.10;;;;;;;12.42;100.00;101965.72;4972384;28;20518;-39
2023/09/27 02:26:53;;;;;;;127.13;122.23;;;;;;;12.39;100.00;101970.59;4976815;28;20808;-40
2023/09/27 02:29:21;;;;;;;127.13;122.00;;;;;;;12.37;100.00;101986.81;4972372;28;20872;-39
2023/09/27 02:31:49;;;;;;;130.13;124.90;;;;;;;12.38;100.00;101985.81;4971616;28;20454;-39
2023/09/27 02:34:18;;;;;;;129.33;123.97;;;;;;;12.39;100.00;101982.13;4972435;28;20431;-39
2023/09/27 02:36:47;;;;;;;125.43;120.20;;;;;;;12.39;100.00;101974.09;4974200;28;20497;-43
2023/09/27 02:39:14;;;;;;;120.77;115.87;;;;;;;12.41;100.00;101989.97;4977467;28;20471;-41
2023/09/27 02:41:42;;;;;;;125.13;120.03;;;;;;;12.42;100.00;101987.13;4971714;28;20950;-44
2023/09/27 02:44:11;;;;;;;120.57;115.57;;;;;;;12.43;100.00;101978.06;4972617;28;20466;-41
2023/09/27 02:46:41;;;;;;;117.73;112.73;;;;;;;12.43;100.00;101975.41;4972124;28;20472;-39
2023/09/27 02:49:09;;;;;;;123.70;118.40;;;;;;;12.44;100.00;101977.06;4972567;28;20493;-39
2023/09/27 02:51:40;;;;;;;126.37;121.10;;;;;;;12.45;100.00;101984.09;4972267;28;20435;-40
2023/09/27 02:54:07;;;;;;;125.33;120.13;;;;;;;12.46;100.00;101993.75;4972243;28;20454;-43
2023/09/27 02:56:36;;;;;;;121.60;116.70;;;;;;;12.46;100.00;101993.75;4971683;28;20521;-40
2023/09/27 02:59:03;;;;;;;122.63;117.57;;;;;;;12.45;100.00;101981.41;4972384;28;20517;-39
2023/09/27 03:01:31;;;;;;;123.13;117.97;;;;;;;12.44;100.00;101984.25;4971852;28;20489;-39
2023/09/27 03:03:59;;;;;;;124.77;119.33;;;;;;;12.44;100.00;101979.75;4972338;28;20455;-42
2023/09/27 03:06:26;;;;;;;123.77;118.57;;;;;;;12.44;100.00;101978.91;4971724;28;20463;-39
2023/09/27 03:08:55;;;;;;;130.30;124.50;;;;;;;12.44;100.00;101971.72;4972602;28;20458;-39
2023/09/27 03:11:23;;;;;;;127.80;122.20;;;;;;;12.44;100.00;101962.84;4972023;28;20531;-43
2023/09/27 03:13:51;;;;;;;129.17;123.73;;;;;;;12.42;100.00;101963.03;4971721;28;20954;-39
2023/09/27 03:16:20;;;;;;;130.90;125.50;;;;;;;12.41;100.00;101968.56;4971626;28;20517;-39
2023/09/27 03:18:47;;;;;;;138.20;131.93;;;;;;;12.41;100.00;101972.06;4971735;28;20485;-39
2023/09/27 03:21:17;;;;;;;131.50;125.87;;;;;;;12.43;100.00;101975.41;4971446;28;20497;-41
2023/09/27 03:23:44;;;;;;;135.80;129.70;;;;;;;12.44;100.00;101978.91;4971897;28;20462;-39
2023/09/27 03:26:13;;;;;;;134.70;128.67;;;;;;;12.47;100.00;101978.56;4974363;28;20464;-39
2023/09/27 03:28:41;;;;;;;135.63;129.53;;;;;;;12.49;100.00;101987.22;4973989;28;20435;-39
2023/09/27 03:31:09;;;;;;;133.00;127.10;;;;;;;12.49;100.00;101982.72;4971500;28;20439;-39
2023/09/27 03:33:37;;;;;;;133.13;127.00;;;;;;;12.49;100.00;101976.50;4971319;28;20562;-39
2023/09/27 03:36:07;;;;;;;141.20;134.70;;;;;;;12.51;100.00;101977.19;4971196;28;20559;-40
2023/09/27 03:38:34;;;;;;;136.17;129.97;;;;;;;12.48;100.00;101966.84;4971795;28;20446;-40
2023/09/27 03:41:02;;;;;;;132.67;126.97;;;;;;;12.46;100.00;101971.53;4970944;28;20439;-39
2023/09/27 03:43:31;;;;;;;134.33;128.07;;;;;;;12.43;100.00;101978.06;4971953;28;20505;-39
2023/09/27 03:46:03;;;;;;;139.97;133.57;;;;;;;12.43;100.00;101974.56;4974005;28;20553;-40
2023/09/27 03:48:31;;;;;;;136.33;130.13;;;;;;;12.42;100.00;101973.75;4975263;28;20466;-41
2023/09/27 03:51:00;;;;;;;141.30;134.77;;;;;;;12.42;100.00;101987.13;4967270;28;20438;-39
2023/09/27 03:53:27;;;;;;;137.40;130.90;;;;;;;12.42;100.00;101980.94;4975020;28;20458;-41
2023/09/27 03:55:55;;;;;;;143.23;136.73;;;;;;;12.43;100.00;101994.13;4974201;28;20995;-40
2023/09/27 03:58:23;;;;;;;149.97;143.00;;;;;;;12.42;100.00;101973.75;4974987;28;20445;-40
2023/09/27 04:00:52;;;;;;;139.57;133.07;;;;;;;12.43;100.00;101983.41;4974737;28;21196;-41
2023/09/27 04:03:21;;;;;;;133.63;127.47;;;;;;;12.42;100.00;101978.25;4974738;28;20982;-41
2023/09/27 04:05:49;;;;;;;140.63;134.23;;;;;;;12.42;100.00;101988.97;4974305;28;20465;-38
2023/09/27 04:08:17;;;;;;;147.00;139.97;;;;;;;12.41;100.00;101981.94;4974810;28;20802;-40
2023/09/27 04:10:45;;;;;;;134.23;128.23;;;;;;;12.38;100.00;101993.84;4974319;28;20435;-40
2023/09/27 04:13:13;;;;;;;137.43;131.03;;;;;;;12.36;100.00;101995.03;4974254;28;20459;-41
2023/09/27 04:15:40;;;;;;;136.13;129.17;;;;;;;12.35;100.00;102002.22;4973813;28;20562;-41
2023/09/27 04:18:09;;;;;;;134.10;127.90;;;;;;;12.35;100.00;101996.84;4974605;28;20471;-44
2023/09/27 04:20:37;;;;;;;143.63;136.57;;;;;;;12.36;100.00;101993.19;4974532;28;20827;-38
2023/09/27 04:23:05;;;;;;;140.00;133.23;;;;;;;12.36;100.00;101993.19;4974195;28;20542;-43
2023/09/27 04:25:33;;;;;;;150.63;142.93;;;;;;;12.33;100.00;101993.53;4973740;28;20870;-40
2023/09/27 04:28:00;;;;;;;138.57;131.97;;;;;;;12.33;100.00;101979.31;4974714;28;20435;-44
2023/09/27 04:30:28;;;;;;;146.37;139.17;;;;;;;12.32;100.00;101975.81;4974572;28;20438;-39
2023/09/27 04:32:55;;;;;;;147.57;140.27;;;;;;;12.38;100.00;101972.44;4973916;28;20459;-44
2023/09/27 04:35:24;;;;;;;146.50;139.33;;;;;;;12.32;100.00;101973.16;4973835;28;20462;-43
2023/09/27 04:37:53;;;;;;;146.53;139.83;;;;;;;12.40;100.00;101966.88;4973934;28;20806;-41
2023/09/27 04:40:21;;;;;;;150.90;143.57;;;;;;;12.44;100.00;101978.91;4973808;28;20542;-41
2023/09/27 04:42:48;;;;;;;148.73;141.73;;;;;;;12.45;100.00;101984.09;4973849;28;20546;-39
2023/09/27 04:45:16;;;;;;;144.83;137.93;;;;;;;12.48;100.00;101974.88;4973641;28;20549;-40
2023/09/27 04:47:44;;;;;;;144.93;137.90;;;;;;;12.49;100.00;101980.03;4973851;28;20685;-43
2023/09/27 04:50:13;;;;;;;147.97;140.40;;;;;;;12.51;100.00;101972.69;4973869;28;20930;-40
2023/09/27 04:52:42;;;;;;;149.77;142.47;;;;;;;12.50;100.00;101962.97;4973571;28;20459;-47
2023/09/27 04:55:10;;;;;;;154.03;146.37;;;;;;;12.51;100.00;101961.13;4973179;28;20459;-42
2023/09/27 04:57:38;;;;;;;143.83;136.77;;;;;;;12.49;100.00;101958.63;4973988;28;20474;-42
2023/09/27 05:00:13;;;;;;;158.20;150.30;;;;;;;12.49;100.00;101961.28;4973918;28;20467;-45
2023/09/27 05:02:41;;;;;;;147.70;140.20;;;;;;;12.50;100.00;101960.28;4973396;28;20525;-44
2023/09/27 05:05:10;;;;;;;146.37;139.47;;;;;;;12.51;100.00;101963.81;4973349;28;20807;-40
2023/09/27 05:07:39;;;;;;;145.33;138.20;;;;;;;12.47;100.00;101966.00;4981895;28;20431;-41
2023/09/27 05:10:10;;;;;;;147.20;139.90;;;;;;;12.53;100.00;101965.28;4973807;28;20462;-43
2023/09/27 05:12:39;;;;;;;144.43;137.10;;;;;;;12.55;100.00;101968.59;4973367;28;20835;-39
2023/09/27 05:15:09;;;;;;;144.97;137.47;;;;;;;12.60;100.00;101971.56;4973125;28;20827;-41
2023/09/27 05:17:37;;;;;;;147.63;140.10;;;;;;;12.65;100.00;101979.91;4973110;28;20506;-41
2023/09/27 05:20:10;;;;;;;145.43;138.27;;;;;;;12.71;100.00;101989.06;4973600;28;20485;-41
2023/09/27 05:22:39;;;;;;;146.80;139.60;;;;;;;12.76;100.00;101984.00;4973075;28;20529;-40
2023/09/27 05:25:09;;;;;;;150.53;142.70;;;;;;;12.80;100.00;101979.94;4972916;28;20506;-40
2023/09/27 05:27:37;;;;;;;155.37;147.67;;;;;;;12.87;100.00;101980.91;4975453;28;20431;-39
2023/09/27 05:30:07;;;;;;;149.33;141.77;;;;;;;12.92;100.00;101980.34;4969824;28;21270;-42
2023/09/27 05:32:35;;;;;;;147.13;139.87;;;;;;;12.97;100.00;101976.09;4971239;28;20466;-40
2023/09/27 05:35:05;;;;;;;148.27;141.20;;;;;;;13.06;100.00;101975.00;4969816;28;20431;-42
2023/09/27 05:37:32;;;;;;;142.93;135.77;;;;;;;13.20;100.00;101981.44;4972030;28;20566;-41
2023/09/27 05:40:04;;;;;;;143.97;137.00;;;;;;;13.30;100.00;101984.66;4971050;28;20440;-43
2023/09/27 05:42:33;;;;;;;145.90;138.90;;;;;;;13.46;100.00;101994.38;4971468;28;20537;-40
2023/09/27 05:45:01;;;;;;;149.90;142.90;;;;;;;13.60;100.00;101983.66;4972350;28;20446;-41
2023/09/27 05:47:28;;;;;;;140.33;133.80;;;;;;;13.99;100.00;102001.25;4972998;28;20433;-41
2023/09/27 05:49:57;;;;;;;136.50;129.93;;;;;;;14.50;100.00;102004.72;4972642;28;20839;-41
2023/09/27 05:52:25;;;;;;;129.17;122.90;;;;;;;15.07;100.00;101997.38;4972525;28;20546;-40
2023/09/27 05:54:53;;;;;;;124.37;118.53;;;;;;;15.56;100.00;102004.56;4971818;28;20494;-42
2023/09/27 05:57:21;;;;;;;112.00;106.43;;;;;;;15.95;100.00;102002.84;4971235;28;20986;-41
2023/09/27 05:59:50;;;;;;;114.10;108.40;;;;;;;16.39;100.00;102004.25;4971517;28;20830;-41
2023/09/27 06:02:20;;;;;;;110.10;104.80;;;;;;;16.70;100.00;101999.13;4972106;28;20489;-40
2023/09/27 06:04:48;;;;;;;92.60;88.10;;;;;;;17.24;100.00;102001.59;4972683;28;20509;-41
2023/09/27 06:07:17;;;;;;;94.27;89.77;;;;;;;17.65;100.00;102004.84;4971234;28;20510;-39
2023/09/27 06:09:45;;;;;;;89.60;84.93;;;;;;;18.11;100.00;102007.34;4972166;28;20500;-41
2023/09/27 06:12:14;;;;;;;84.03;79.93;;;;;;;18.49;100.00;102011.91;4972561;28;20465;-43
2023/09/27 06:14:42;;;;;;;75.53;71.50;;;;;;;18.96;100.00;102003.28;4972693;28;20526;-44
2023/09/27 06:17:15;;;;;;;72.67;68.60;;;;;;;19.39;100.00;101999.72;4971936;28;20496;-41
2023/09/27 06:19:44;;;;;;;70.30;66.90;;;;;;;19.73;100.00;101996.47;4972646;28;20438;-43
2023/09/27 06:22:13;;;;;;;67.30;64.10;;;;;;;20.12;100.00;102012.22;4972180;28;20464;-44
2023/09/27 06:24:41;;;;;;;69.97;66.43;;;;;;;20.42;100.00;102004.09;4972527;28;20949;-40
2023/09/27 06:27:09;;;;;;;66.50;63.17;;;;;;;20.66;100.00;101991.44;4978795;28;20469;-45
2023/09/27 06:29:36;;;;;;;65.07;61.77;;;;;;;20.88;100.00;101990.63;4972293;28;20501;-42
2023/09/27 06:32:05;;;;;;;63.57;60.37;;;;;;;21.14;100.00;101983.13;4972005;28;20528;-45
2023/09/27 06:34:35;;;;;;;73.60;70.10;;;;;;;21.34;100.00;101987.13;4970877;28;20438;-42
2023/09/27 06:37:03;;;;;;;71.20;67.97;;;;;;;21.38;100.00;101982.06;4970398;28;20481;-43
2023/09/27 06:39:31;;;;;;;75.03;71.33;;;;;;;21.40;100.00;101980.75;4971280;28;20435;-44
2023/09/27 06:41:59;;;;;;;68.33;65.23;;;;;;;21.51;100.00;101981.78;4970711;28;21009;-42
2023/09/27 06:44:26;;;;;;;77.40;73.80;;;;;;;21.45;100.00;101972.72;4972328;28;20529;-43
2023/09/27 06:46:54;;;;;;;74.60;70.33;;;;;;;21.39;100.00;101970.13;4986298;23;20553;-45
2023/09/27 06:49:22;;;;;;;69.60;66.40;;;;;;;21.31;100.00;101965.06;4972854;28;20493;-43
2023/09/27 06:51:51;;;;;;;72.50;68.93;;;;;;;21.15;100.00;101966.63;4972943;28;20443;-45
2023/09/27 06:54:18;;;;;;;69.40;66.00;;;;;;;21.00;100.00;101977.06;4965304;28;20477;-46
2023/09/27 06:56:46;;;;;;;67.93;64.93;;;;;;;20.90;100.00;101977.69;4971685;28;20771;-42
2023/09/27 06:59:14;;;;;;;61.77;59.07;;;;;;;20.85;100.00;101999.22;4957785;28;20465;-45
2023/09/27 07:01:42;;;;;;;60.20;57.10;;;;;;;20.76;100.00;101999.81;4972344;28;20445;-45
2023/09/27 07:04:09;;;;;;;53.87;51.17;;;;;;;20.60;100.00;102005.91;4972816;28;20944;-42
2023/09/27 07:06:37;;;;;;;56.37;53.40;;;;;;;20.52;100.00;102012.47;4972209;28;20493;-40
2023/09/27 07:09:12;;;;;;;57.37;54.07;;;;;;;20.39;100.00;102012.69;4964713;28;20430;-46
2023/09/27 07:11:42;;;;;;;53.83;50.70;;;;;;;20.20;100.00;102021.88;4972511;28;20442;-44
2023/09/27 07:14:09;;;;;;;51.20;48.27;;;;;;;20.12;100.00;102023.03;4961233;28;20443;-43
2023/09/27 07:16:37;;;;;;;52.63;49.83;;;;;;;20.04;100.00;102031.47;4967558;28;20977;-44
2023/09/27 07:19:23;;;;;;;50.37;47.77;;;;;;;20.10;100.00;102016.22;4969047;28;21104;-44
2023/09/27 07:21:51;;;;;;;53.03;49.43;;;;;;;20.27;100.00;102009.94;4991221;28;20983;-44
2023/09/27 07:24:20;;;;;;;51.40;48.60;;;;;;;20.48;100.00;102024.03;4992802;28;20492;-44
2023/09/27 07:26:49;;;;;;;46.70;44.07;;;;;;;20.70;100.00;102035.97;4973946;28;21046;-43
2023/09/27 07:29:17;;;;;;;46.37;43.67;;;;;;;20.94;100.00;102046.66;4975838;28;20434;-44
2023/09/27 07:31:45;;;;;;;47.10;44.30;;;;;;;21.20;100.00;102037.28;4967066;28;20942;-42
2023/09/27 07:34:13;;;;;;;50.23;47.40;;;;;;;21.39;100.00;102041.50;4975453;28;21147;-42
2023/09/27 07:36:40;;;;;;;45.77;43.17;;;;;;;21.34;100.00;102035.97;4967566;28;20551;-43
2023/09/27 07:39:09;;;;;;;45.53;42.93;;;;;;;21.21;100.00;102044.34;4966950;28;20474;-42
2023/09/27 07:41:38;;;;;;;44.90;42.30;;;;;;;21.14;100.00;102050.97;4974973;28;20742;-46
2023/09/27 07:44:09;;;;;;;46.33;43.50;;;;;;;21.15;100.00;102066.97;4972734;28;20522;-43
2023/09/27 07:46:38;;;;;;;44.40;42.00;;;;;;;21.15;100.00;102083.25;4941406;28;20571;-43
2023/09/27 07:49:06;;;;;;;44.60;41.90;;;;;;;21.12;100.00;102075.59;4936675;29;20436;-43
2023/09/27 07:51:34;;;;;;;45.00;42.40;;;;;;;21.01;100.00;102060.09;4936432;29;20440;-42
2023/09/27 07:54:04;;;;;;;40.60;38.30;;;;;;;21.01;100.00;102051.13;4936404;29;20446;-41
2023/09/27 07:56:36;;;;;;;42.80;40.33;;;;;;;21.06;100.00;102049.38;4936345;28;20480;-42
2023/09/27 07:59:06;;;;;;;41.20;38.97;;;;;;;21.11;100.00;102046.00;4936440;29;20916;-44
2023/09/27 08:01:34;;;;;;;39.70;37.40;;;;;;;21.13;100.00;102033.84;4936307;29;20479;-41
2023/09/27 08:04:06;;;;;;;35.70;33.80;;;;;;;21.15;100.00;102026.28;4936353;29;20916;-42
2023/09/27 08:06:38;;;;;;;36.47;34.33;;;;;;;21.07;100.00;102014.94;4935839;28;20567;-43
2023/09/27 08:09:06;;;;;;;35.33;33.13;;;;;;;20.99;100.00;102010.69;4936400;29;20444;-45
2023/09/27 08:11:39;;;;;;;32.97;31.27;;;;;;;21.04;100.00;102001.84;4943564;29;20435;-42
2023/09/27 08:14:08;;;;;;;37.60;35.40;;;;;;;21.11;100.00;101992.59;4955475;29;20435;-40
2023/09/27 08:16:36;;;;;;;36.03;33.37;;;;;;;21.15;100.00;101990.19;4948554;28;20869;-43
2023/09/27 08:19:03;;;;;;;34.90;32.67;;;;;;;21.10;100.00;101984.66;4946036;29;20559;-43
2023/09/27 08:21:31;;;;;;;34.17;31.97;;;;;;;21.13;100.00;101985.03;4949458;28;20436;-42
2023/09/27 08:23:59;;;;;;;33.27;31.07;;;;;;;21.10;100.00;101993.63;4953353;29;20481;-42
2023/09/27 08:26:27;;;;;;;34.00;31.57;;;;;;;21.28;100.00;101993.50;4954862;28;20467;-44
2023/09/27 08:28:55;;;;;;;33.90;31.50;;;;;;;21.44;100.00;101991.97;4954583;28;21002;-45
2023/09/27 08:31:25;;;;;;;29.10;27.30;;;;;;;21.25;100.00;101998.59;4946560;28;20456;-44
2023/09/27 08:33:53;;;;;;;31.80;29.70;;;;;;;21.44;100.00;102009.06;4954449;29;20498;-44
2023/09/27 08:36:21;;;;;;;30.60;28.60;;;;;;;21.53;100.00;102018.47;4947764;28;20467;-41
2023/09/27 08:38:48;;;;;;;31.23;28.83;;;;;;;21.74;100.00;102008.06;4946551;28;20566;-42
2023/09/27 08:41:17;;;;;;;31.73;29.73;;;;;;;21.72;100.00;102007.47;4953494;28;20503;-42
2023/09/27 08:43:46;;;;;;;27.40;25.50;;;;;;;21.85;100.00;102015.38;4952308;28;20447;-43
2023/09/27 08:46:14;;;;;;;26.27;24.43;;;;;;;21.96;100.00;102022.69;4954161;28;20463;-43
2023/09/27 08:48:43;;;;;;;26.07;24.33;;;;;;;22.11;100.00;102033.84;4947226;28;20442;-44
2023/09/27 08:51:10;;;;;;;25.90;24.10;;;;;;;22.32;100.00;102030.47;4954503;28;20479;-42
2023/09/27 08:53:42;;;;;;;26.50;24.80;;;;;;;22.44;100.00;102033.94;4954902;28;20443;-42
2023/09/27 08:56:11;;;;;;;28.27;26.20;;;;;;;22.39;100.00;102028.44;4954505;28;20467;-44
2023/09/27 08:58:41;;;;;;;24.83;23.10;;;;;;;22.34;100.00;102022.88;4954586;29;20562;-42
2023/09/27 09:01:09;;;;;;;23.03;21.23;;;;;;;22.48;100.00;102032.41;4954474;28;20454;-47
2023/09/27 09:03:37;;;;;;;30.30;22.97;;;;;;;22.70;100.00;102016.22;4954962;29;20446;-44
2023/09/27 09:06:12;;;;;;;26.40;24.00;;;;;;;22.93;100.00;102015.25;4946249;28;21085;-43
2023/09/27 09:08:40;;;;;;;25.33;23.40;;;;;;;23.18;100.00;102009.38;4954569;29;20505;-42
2023/09/27 09:11:11;;;;;;;22.10;20.47;;;;;;;23.40;100.00;102013.81;4951280;29;20444;-42
2023/09/27 09:13:59;;;;;;;22.60;21.00;;;;;;;23.67;100.00;102019.34;4949889;29;20527;-42
2023/09/27 09:16:27;;;;;;;22.17;20.47;;;;;;;23.82;100.00;102013.28;4946112;28;20463;-44
2023/09/27 09:18:57;;;;;;;21.63;20.03;;;;;;;24.00;100.00;102012.94;4946080;28;20476;-42
2023/09/27 09:21:28;;;;;;;18.97;17.77;;;;;;;24.17;100.00;102017.25;4945889;28;20435;-42
2023/09/27 09:23:55;;;;;;;20.27;18.77;;;;;;;24.31;100.00;102016.88;4946515;28;20439;-45
2023/09/27 09:26:28;;;;;;;22.20;20.50;;;;;;;24.28;100.00;102003.75;4941581;28;20987;-42
2023/09/27 09:29:00;;;;;;;22.83;21.13;;;;;;;24.07;100.00;101997.22;4935355;29;20556;-43
2023/09/27 09:31:30;;;;;;;21.10;19.50;;;;;;;23.79;100.00;101997.44;4934796;29;20928;-41
2023/09/27 09:34:05;;;;;;;20.60;19.00;;;;;;;23.49;100.00;102008.75;4934747;29;20491;-40
2023/09/27 09:36:35;;;;;;;20.03;18.37;;;;;;;23.45;100.00;102005.72;4948315;28;20982;-40
2023/09/27 09:39:05;;;;;;;23.67;21.73;;;;;;;23.67;100.00;102000.28;4953980;29;20475;-41
2023/09/27 09:41:45;;;;;;;21.73;19.93;;;;;;;23.77;100.00;101986.81;4940065;29;20938;-41
2023/09/27 09:44:19;;;;;;;21.60;20.10;;;;;;;23.80;100.00;101991.75;4945406;29;20432;-41
2023/09/27 09:46:48;;;;;;;19.13;17.60;;;;;;;23.85;100.00;101994.53;4946130;28;20468;-40
2023/09/27 09:49:16;;;;;;;19.73;18.23;;;;;;;23.88;100.00;102001.34;4945676;29;20974;-43
2023/09/27 09:51:47;;;;;;;23.77;21.37;;;;;;;23.89;100.00;101995.66;4945662;29;20461;-45
2023/09/27 09:54:27;;;;;;;22.43;20.40;;;;;;;24.02;100.00;101997.97;4942639;28;20478;-41
2023/09/27 09:56:57;;;;;;;20.67;19.23;;;;;;;24.11;100.00;101995.66;4941804;28;20470;-42
2023/09/27 09:59:49;;;;;;;20.23;18.70;;;;;;;24.13;100.00;102002.50;4942386;29;20483;-42
2023/09/27 10:02:20;;;;;;;17.97;16.70;;;;;;;24.09;100.00;102000.50;4945692;28;20447;-41
2023/09/27 10:04:55;;;;;;;19.77;18.30;;;;;;;24.05;100.00;102008.38;4945547;28;21002;-42
2023/09/27 10:07:26;;;;;;;17.27;16.07;;;;;;;24.22;100.00;102009.13;4972604;28;20545;-43
2023/09/27 10:09:57;;;;;;;20.57;18.80;;;;;;;24.32;100.00;102008.41;4972574;28;20913;-42
2023/09/27 10:12:28;;;;;;;18.90;17.50;;;;;;;24.07;100.00;102017.09;4972745;28;20446;-40
2023/09/27 10:14:56;;;;;;;18.47;17.20;;;;;;;24.09;100.00;102012.25;4971961;28;20434;-43
2023/09/27 10:17:26;;;;;;;16.93;15.73;;;;;;;24.10;100.00;102021.25;4953261;28;20510;-41
2023/09/27 10:20:12;;;;;;;18.47;16.97;;;;;;;24.12;100.00;102010.94;4952756;28;20537;-42
2023/09/27 10:22:43;;;;;;;16.80;15.60;;;;;;;24.20;100.00;102016.75;4948295;28;20444;-42
2023/09/27 10:25:35;;;;;;;17.27;16.20;;;;;;;24.46;100.00;102001.47;4963153;28;20439;-42
2023/09/27 10:28:07;;;;;;;17.10;16.00;;;;;;;24.53;100.00;102004.81;4949579;28;20467;-40
2023/09/27 10:31:07;;;;;;;15.23;14.33;;;;;;;24.49;100.00;101997.41;4959137;28;20439;-42
2023/09/27 10:33:34;;;;;;;16.57;15.33;;;;;;;24.62;100.00;102008.72;4947539;28;20894;-43
2023/09/27 10:36:28;;;;;;;15.63;14.50;;;;;;;24.77;100.00;102027.94;4953580;28;20467;-42
2023/09/27 10:39:06;;;;;;;15.20;14.00;;;;;;;24.78;100.00;102029.59;4956452;28;20559;-40
2023/09/27 10:41:46;;;;;;;15.87;14.67;;;;;;;24.92;100.00;102018.25;4972399;28;20847;-41
2023/09/27 10:44:26;;;;;;;13.80;12.70;;;;;;;24.93;100.00;102012.56;4961713;28;20462;-40
2023/09/27 10:46:54;;;;;;;13.97;13.00;;;;;;;24.84;100.00;102022.31;4960135;28;20466;-42
2023/09/27 10:49:22;;;;;;;15.67;14.33;;;;;;;24.82;100.00;102021.72;4948454;28;20934;-41
2023/09/27 10:51:50;;;;;;;14.00;12.63;;;;;;;24.86;100.00;102016.56;4972277;28;20481;-40
2023/09/27 10:54:25;;;;;;;14.97;13.60;;;;;;;25.13;100.00;102023.63;4967770;28;20439;-42
2023/09/27 10:56:55;;;;;;;18.00;14.93;;;;;;;25.46;100.00;102014.25;4960358;28;20556;-44
2023/09/27 10:59:24;;;;;;;58.40;22.13;;;;;;;25.67;100.00;102016.03;4975873;28;20509;-42
2023/09/27 11:01:52;;;;;;;16.60;14.53;;;;;;;25.92;100.00;102000.84;4975937;28;20446;-41
2023/09/27 11:04:23;;;;;;;28.33;16.00;;;;;;;26.13;100.00;102013.47;4967893;28;20445;-41